aviador You're here:

UUEE Decoded Metar

MOSCOW/SHEREMETYEVO in RUSSIA
Report Time2017-11-19 19:30:00
UTC Time2017-11-19 19:46:18
Flight Rules lifr LIFR
Wind160° at 6 kt
W.Decomp.*RWY 07: 1.0 kt HW 5.9 kt RCW
W.Rank160° ranks 15
Current wind is below 160° avg. (7.7)
Visibility2600 m
Phenomena:Light Snow
Mist
Clouds:Overcast 003 Hf
Ceiling300 ft
Temp00°C (ISA -14)
Dew Point00°C (100% RH)
AAT-4.1°C
QNH1006 hPa
Density Alt-732 ft
Elevation623 ft
Report Wrong Elevation
Raw Report
METAR UUEE 191930Z 16003MPS 2600 -SN BR OVC003 00/00 Q1006 R06L/290140
R06R/290151 TEMPO 1200 -SN BR BKN002=

Extra information for UUEE:More info

Metar Taf Metar & Taf Last 4 Metars F.Rules Stats Wind Profile Meteogram Temp Stats Airport Information Weather charts Add Link Nearby VenuesMetar ALERT Operation Metar Decoded Social comments